createdAt,value
2022-07-26T00:01:57.583Z,26.1
2022-07-26T00:04:24.239Z,26.1
2022-07-26T00:06:50.842Z,26.1
2022-07-26T00:09:17.470Z,26.1
2022-07-26T00:11:44.079Z,26.1
2022-07-26T00:14:10.723Z,26.1
2022-07-26T00:16:35.846Z,26.1
2022-07-26T00:19:02.456Z,26.1
2022-07-26T00:21:29.095Z,26.1
2022-07-26T00:23:55.719Z,26.1
2022-07-26T00:26:22.329Z,26.1
2022-07-26T00:28:49.051Z,26.1
2022-07-26T00:31:15.578Z,26.1
2022-07-26T00:33:42.195Z,26.1
2022-07-26T00:36:08.849Z,26.1
2022-07-26T00:38:35.456Z,26
2022-07-26T00:41:02.097Z,26
2022-07-26T00:43:28.693Z,26
2022-07-26T00:45:55.320Z,26
2022-07-26T00:48:21.946Z,26
2022-07-26T00:50:47.138Z,26
2022-07-26T00:53:13.698Z,26
2022-07-26T00:55:40.338Z,26
2022-07-26T00:58:06.945Z,25.9
2022-07-26T01:00:33.553Z,26
2022-07-26T01:03:00.174Z,25.9
2022-07-26T01:05:26.804Z,25.9
2022-07-26T01:07:53.481Z,25.9
2022-07-26T01:10:20.061Z,26
2022-07-26T01:12:46.680Z,25.9
2022-07-26T01:15:13.298Z,25.9
2022-07-26T01:17:39.920Z,25.9
2022-07-26T01:20:06.552Z,25.9
2022-07-26T01:22:31.675Z,25.9
2022-07-26T01:24:58.291Z,25.9
2022-07-26T01:27:24.908Z,25.9
2022-07-26T01:29:51.535Z,25.9
2022-07-26T01:34:44.786Z,25.9
2022-07-26T01:37:11.409Z,25.9
2022-07-26T01:39:38.050Z,25.9
2022-07-26T01:42:04.654Z,25.9
2022-07-26T01:44:31.274Z,25.9
2022-07-26T01:46:57.905Z,25.9
2022-07-26T01:49:24.522Z,25.9
2022-07-26T01:51:51.148Z,25.9
2022-07-26T01:54:16.279Z,25.9
2022-07-26T01:56:42.891Z,25.9
2022-07-26T01:59:09.517Z,25.8
2022-07-26T02:01:36.147Z,25.8
2022-07-26T02:04:02.767Z,25.8
2022-07-26T02:06:29.387Z,25.8
2022-07-26T02:08:56.010Z,25.8
2022-07-26T02:11:22.644Z,25.8
2022-07-26T02:13:49.258Z,25.8
2022-07-26T02:16:15.906Z,25.8
2022-07-26T02:18:42.527Z,25.8
2022-07-26T02:21:09.130Z,25.8
2022-07-26T02:23:35.758Z,25.7
2022-07-26T02:26:00.872Z,25.7
2022-07-26T02:28:27.487Z,25.7
2022-07-26T02:30:54.125Z,25.7
2022-07-26T02:33:20.738Z,25.7
2022-07-26T02:35:47.369Z,25.7
2022-07-26T02:38:13.984Z,25.7
2022-07-26T02:40:40.607Z,25.7
2022-07-26T02:43:07.255Z,25.7
2022-07-26T02:45:33.859Z,25.7
2022-07-26T02:48:00.470Z,25.7
2022-07-26T02:50:27.113Z,25.7
2022-07-26T02:52:53.717Z,25.7
2022-07-26T02:55:20.339Z,25.7
2022-07-26T02:57:45.488Z,25.7
2022-07-26T03:00:12.090Z,25.7
2022-07-26T03:02:38.722Z,25.7
2022-07-26T03:05:05.347Z,25.7
2022-07-26T03:07:31.963Z,25.6
2022-07-26T03:09:58.597Z,25.6
2022-07-26T03:12:25.214Z,25.7
2022-07-26T03:14:51.830Z,25.7
2022-07-26T03:17:18.448Z,25.6
2022-07-26T03:19:45.077Z,25.6
2022-07-26T03:22:11.722Z,25.6
2022-07-26T03:24:38.325Z,25.6
2022-07-26T03:27:04.947Z,25.6
2022-07-26T03:29:30.076Z,25.6
2022-07-26T03:31:56.689Z,25.6
2022-07-26T03:34:23.310Z,25.6
2022-07-26T03:36:49.953Z,25.6
2022-07-26T03:39:16.571Z,25.6
2022-07-26T03:41:43.198Z,25.6
2022-07-26T03:44:09.818Z,25.6
2022-07-26T03:46:36.433Z,25.6
2022-07-26T03:49:03.060Z,25.6
2022-07-26T03:51:29.689Z,25.6
2022-07-26T03:53:56.312Z,25.6
2022-07-26T03:56:22.952Z,25.6
2022-07-26T03:58:49.554Z,25.6
2022-07-26T04:01:14.675Z,25.6
2022-07-26T04:03:41.312Z,25.6
2022-07-26T04:06:07.927Z,25.5
2022-07-26T04:08:34.543Z,25.5
2022-07-26T04:11:01.175Z,25.5
2022-07-26T04:13:27.791Z,25.5
2022-07-26T04:15:54.415Z,25.5
2022-07-26T04:18:21.039Z,25.5
2022-07-26T04:20:47.674Z,25.5
2022-07-26T04:23:14.289Z,25.4
2022-07-26T04:25:40.920Z,25.4
2022-07-26T04:28:07.537Z,25.4
2022-07-26T04:30:34.153Z,25.4
2022-07-26T04:33:00.776Z,25.4
2022-07-26T04:35:25.907Z,25.4
2022-07-26T04:37:52.532Z,25.4
2022-07-26T04:40:19.143Z,25.4
2022-07-26T04:42:45.028Z,25.4
2022-07-26T04:45:11.638Z,25.4
2022-07-26T04:47:38.258Z,25.4
2022-07-26T04:50:04.875Z,25.4
2022-07-26T04:52:31.508Z,25.4
2022-07-26T04:54:58.126Z,25.4
2022-07-26T04:57:24.740Z,25.4
2022-07-26T04:59:51.363Z,25.4
2022-07-26T05:02:17.993Z,25.4
2022-07-26T05:04:44.632Z,25.4
2022-07-26T05:07:09.746Z,25.4
2022-07-26T05:09:36.370Z,25.4
2022-07-26T05:12:02.992Z,25.4
2022-07-26T05:14:29.605Z,25.4
2022-07-26T05:16:56.244Z,25.3
2022-07-26T05:19:22.845Z,25.3
2022-07-26T05:21:49.471Z,25.3
2022-07-26T05:24:16.106Z,25.3
2022-07-26T05:26:42.727Z,25.3
2022-07-26T05:29:09.349Z,25.3
2022-07-26T05:31:35.971Z,25.3
2022-07-26T05:34:02.605Z,25.3
2022-07-26T05:36:29.223Z,25.3
2022-07-26T05:38:54.343Z,25.3
2022-07-26T05:41:20.965Z,25.3
2022-07-26T05:43:47.578Z,25.2
2022-07-26T05:46:14.204Z,25.2
2022-07-26T05:48:40.833Z,25.2
2022-07-26T05:51:07.453Z,25.2
2022-07-26T05:53:34.073Z,25.2
2022-07-26T05:56:00.704Z,25.2
2022-07-26T05:58:27.326Z,25.2
2022-07-26T06:00:53.945Z,25.2
2022-07-26T06:03:20.597Z,25.2
2022-07-26T06:05:47.192Z,25.2
2022-07-26T06:08:13.809Z,25.2
2022-07-26T06:10:40.440Z,25.2
2022-07-26T06:13:05.573Z,25.2
2022-07-26T06:15:32.203Z,25.2
2022-07-26T06:17:58.812Z,25.2
2022-07-26T06:20:25.441Z,25.2
2022-07-26T06:22:52.070Z,25.2
2022-07-26T06:25:18.673Z,25.2
2022-07-26T06:27:45.299Z,25.2
2022-07-26T06:30:11.923Z,25.1
2022-07-26T06:32:38.551Z,25.2
2022-07-26T06:35:05.176Z,25.1
2022-07-26T06:37:31.820Z,25.1
2022-07-26T06:39:58.411Z,25.1
2022-07-26T06:42:25.031Z,25.1
2022-07-26T06:44:50.166Z,25.1
2022-07-26T06:47:15.296Z,25.1
2022-07-26T06:49:41.934Z,25.1
2022-07-26T06:52:08.551Z,25.1
2022-07-26T06:54:35.151Z,25.1
2022-07-26T06:57:01.787Z,25.1
2022-07-26T06:59:28.405Z,25.1
2022-07-26T07:01:55.028Z,25.1
2022-07-26T07:04:21.654Z,25.1
2022-07-26T07:06:48.271Z,25.1
2022-07-26T07:09:14.913Z,25.1
2022-07-26T07:11:41.509Z,25.1
2022-07-26T07:14:08.142Z,25.1
2022-07-26T07:19:01.389Z,25.1
2022-07-26T07:21:26.509Z,25.1
2022-07-26T07:23:53.133Z,25.1
2022-07-26T07:26:19.768Z,25.1
2022-07-26T07:28:46.375Z,25.1
2022-07-26T07:31:12.995Z,25.1
2022-07-26T07:33:39.629Z,25.1
2022-07-26T07:36:06.240Z,25.1
2022-07-26T07:40:59.485Z,25
2022-07-26T07:43:26.127Z,25.1
2022-07-26T07:45:52.746Z,25
2022-07-26T07:48:19.376Z,25.1
2022-07-26T07:50:45.977Z,25
2022-07-26T07:53:11.121Z,25
2022-07-26T07:55:37.770Z,25
2022-07-26T07:58:04.373Z,25
2022-07-26T08:00:30.982Z,25
2022-07-26T08:02:57.606Z,25
2022-07-26T08:05:24.226Z,25
2022-07-26T08:07:50.853Z,25
2022-07-26T08:10:17.472Z,25
2022-07-26T08:12:44.099Z,25
2022-07-26T08:17:37.350Z,25
2022-07-26T08:20:03.972Z,25
2022-07-26T08:22:30.580Z,25
2022-07-26T08:24:55.709Z,24.9
2022-07-26T08:27:22.343Z,24.9
2022-07-26T08:29:48.963Z,25
2022-07-26T08:32:15.586Z,25
2022-07-26T08:34:42.207Z,25
2022-07-26T08:37:08.843Z,24.9
2022-07-26T08:39:35.477Z,24.9
2022-07-26T08:42:02.091Z,25
2022-07-26T08:44:28.704Z,24.9
2022-07-26T08:46:55.331Z,24.9
2022-07-26T08:49:21.380Z,24.9
2022-07-26T08:51:48.015Z,24.9
2022-07-26T08:54:14.625Z,24.9
2022-07-26T08:56:39.751Z,24.9
2022-07-26T08:59:06.378Z,24.9
2022-07-26T09:01:32.995Z,24.9
2022-07-26T09:03:59.631Z,24.9
2022-07-26T09:06:26.253Z,24.9
2022-07-26T09:08:52.872Z,24.9
2022-07-26T09:11:19.739Z,24.9
2022-07-26T09:13:46.331Z,24.9
2022-07-26T09:16:12.736Z,24.9
2022-07-26T09:18:39.357Z,24.9
2022-07-26T09:21:06.008Z,24.9
2022-07-26T09:23:32.602Z,24.9
2022-07-26T09:25:59.225Z,24.9
2022-07-26T09:28:24.364Z,24.9
2022-07-26T09:30:50.985Z,25
2022-07-26T09:33:17.612Z,25
2022-07-26T09:35:44.237Z,25
2022-07-26T09:38:10.859Z,25.1
2022-07-26T09:40:37.482Z,25.1
2022-07-26T09:43:04.095Z,25.1
2022-07-26T09:45:30.757Z,25.1
2022-07-26T09:47:57.346Z,25.1
2022-07-26T09:50:23.980Z,25.1
2022-07-26T09:52:50.588Z,25.1
2022-07-26T09:55:17.215Z,25.1
2022-07-26T09:57:43.837Z,25.1
2022-07-26T10:00:10.461Z,25
2022-07-26T10:02:35.595Z,25.1
2022-07-26T10:05:02.227Z,25
2022-07-26T10:07:28.840Z,25
2022-07-26T10:09:55.459Z,25
2022-07-26T10:12:22.095Z,25
2022-07-26T10:14:48.714Z,25
2022-07-26T10:17:15.331Z,25
2022-07-26T10:19:41.976Z,25
2022-07-26T10:22:08.579Z,25
2022-07-26T10:24:35.214Z,25
2022-07-26T10:27:01.818Z,25
2022-07-26T10:29:28.443Z,25
2022-07-26T10:31:55.069Z,25.1
2022-07-26T10:36:46.822Z,25.1
2022-07-26T10:39:13.447Z,25.1
2022-07-26T10:41:40.092Z,25.1
2022-07-26T10:44:06.694Z,25.1
2022-07-26T10:46:33.309Z,25.1
2022-07-26T10:48:59.941Z,25.1
2022-07-26T10:51:26.576Z,25.1
2022-07-26T10:53:53.204Z,25.1
2022-07-26T10:56:19.806Z,25.1
2022-07-26T10:58:46.467Z,25.1
2022-07-26T11:01:13.074Z,25.1
2022-07-26T11:03:39.685Z,25.1
2022-07-26T11:06:04.827Z,25.1
2022-07-26T11:08:31.425Z,25.1
2022-07-26T11:10:58.044Z,25.1
2022-07-26T11:13:24.671Z,25.1
2022-07-26T11:15:51.291Z,25.1
2022-07-26T11:18:17.927Z,25.1
2022-07-26T11:20:44.539Z,25.1
2022-07-26T11:23:11.170Z,25.1
2022-07-26T11:25:37.809Z,25.1
2022-07-26T11:28:04.416Z,25.1
2022-07-26T11:30:31.048Z,25.1
2022-07-26T11:32:57.674Z,25.1
2022-07-26T11:35:24.318Z,25.1
2022-07-26T11:37:49.402Z,25.1
2022-07-26T11:40:16.069Z,25.1
2022-07-26T11:42:42.648Z,25.1
2022-07-26T11:45:09.279Z,25.1
2022-07-26T11:47:35.907Z,25.1
2022-07-26T11:50:02.540Z,25.1
2022-07-26T11:52:29.159Z,25.1
2022-07-26T11:54:55.775Z,25.1
2022-07-26T11:57:22.397Z,25.1
2022-07-26T11:59:49.027Z,25.1
2022-07-26T12:02:15.650Z,25.1
2022-07-26T12:04:42.280Z,25.1
2022-07-26T12:07:08.894Z,25.1
2022-07-26T12:09:34.030Z,25.1
2022-07-26T12:12:00.659Z,25.1
2022-07-26T12:14:27.279Z,25.1
2022-07-26T12:16:53.912Z,25.1
2022-07-26T12:19:20.527Z,25.1
2022-07-26T12:21:47.136Z,25.1
2022-07-26T12:24:13.776Z,25.1
2022-07-26T12:26:40.402Z,25.1
2022-07-26T12:29:07.010Z,25.1
2022-07-26T12:31:33.634Z,25.1
2022-07-26T12:34:00.272Z,25.1
2022-07-26T12:36:26.901Z,25.1
2022-07-26T12:38:53.520Z,25.1
2022-07-26T12:41:18.634Z,25.1
2022-07-26T12:43:45.274Z,25.1
2022-07-26T12:48:37.869Z,25.1
2022-07-26T12:51:04.532Z,25.2
2022-07-26T12:53:31.112Z,25.2
2022-07-26T12:55:57.740Z,25.2
2022-07-26T12:58:24.355Z,25.1
2022-07-26T13:00:50.983Z,25.1
2022-07-26T13:03:17.613Z,25.2
2022-07-26T13:05:44.232Z,25.2
2022-07-26T13:08:10.846Z,25.2
2022-07-26T13:10:37.454Z,25.2
2022-07-26T13:13:02.599Z,25.2
2022-07-26T13:15:29.227Z,25.2
2022-07-26T13:17:55.852Z,25.1
2022-07-26T13:20:22.463Z,25.2
2022-07-26T13:22:49.092Z,25.1
2022-07-26T13:25:15.716Z,25.2
2022-07-26T13:27:42.344Z,25.2
2022-07-26T13:30:08.958Z,25.2
2022-07-26T13:32:35.587Z,25.2
2022-07-26T13:35:01.333Z,25.2
2022-07-26T13:37:27.943Z,25.2
2022-07-26T13:39:54.562Z,25.2
2022-07-26T13:42:21.191Z,25.2
2022-07-26T13:44:46.308Z,25.2
2022-07-26T13:47:12.945Z,25.2
2022-07-26T13:49:39.551Z,25.2
2022-07-26T13:52:06.180Z,25.2
2022-07-26T13:54:32.806Z,25.2
2022-07-26T13:56:59.420Z,25.2
2022-07-26T13:59:26.059Z,25.2
2022-07-26T14:01:52.689Z,25.2
2022-07-26T14:06:45.927Z,25.2
2022-07-26T14:09:12.543Z,25.2
2022-07-26T14:11:39.177Z,25.2
2022-07-26T14:14:05.797Z,25.2
2022-07-26T14:16:30.928Z,25.2
2022-07-26T14:18:57.547Z,25.2
2022-07-26T14:21:24.156Z,25.2
2022-07-26T14:23:50.793Z,25.2
2022-07-26T14:26:17.409Z,25.2
2022-07-26T14:28:44.052Z,25.2
2022-07-26T14:31:10.662Z,25.2
2022-07-26T14:33:37.089Z,25.2
2022-07-26T14:36:03.740Z,25.2
2022-07-26T14:38:30.339Z,25.2
2022-07-26T14:43:23.591Z,25.2
2022-07-26T14:45:49.510Z,25.2
2022-07-26T14:48:14.640Z,25.2
2022-07-26T14:50:41.265Z,25.2
2022-07-26T14:53:07.887Z,25.2
2022-07-26T14:55:34.509Z,25.2
2022-07-26T14:57:59.649Z,25.2
2022-07-26T15:00:26.268Z,25.2
2022-07-26T15:02:52.904Z,25.2
2022-07-26T15:05:19.509Z,25.2
2022-07-26T15:07:46.125Z,25.2
2022-07-26T15:10:12.765Z,25.2
2022-07-26T15:12:39.379Z,25.2
2022-07-26T15:15:06.043Z,25.2
2022-07-26T15:17:32.627Z,25.2
2022-07-26T15:19:59.251Z,25.2
2022-07-26T15:22:25.872Z,25.2
2022-07-26T15:24:52.508Z,25.2
2022-07-26T15:27:19.131Z,25.2
2022-07-26T15:29:45.370Z,25.2
2022-07-26T15:32:10.497Z,25.2
2022-07-26T15:34:37.140Z,25.2
2022-07-26T15:37:03.755Z,25.2
2022-07-26T15:39:30.367Z,25.2
2022-07-26T15:41:57.000Z,25.2
2022-07-26T15:44:23.616Z,25.2
2022-07-26T15:49:16.867Z,25.2
2022-07-26T15:56:36.738Z,25.2
2022-07-26T15:59:01.860Z,25.2
2022-07-26T16:01:26.995Z,25.2
2022-07-26T16:03:53.605Z,25.2
2022-07-26T16:06:20.243Z,25.2
2022-07-26T16:08:46.860Z,25.2
2022-07-26T16:11:13.485Z,25.2
2022-07-26T16:13:40.096Z,25.2
2022-07-26T16:16:06.731Z,25.2
2022-07-26T16:18:33.349Z,25.2
2022-07-26T16:20:59.970Z,25.2
2022-07-26T16:23:26.605Z,25.2
2022-07-26T16:25:53.227Z,25.2
2022-07-26T16:28:18.348Z,25.2
2022-07-26T16:30:43.476Z,25.2
2022-07-26T16:33:10.106Z,25.2
2022-07-26T16:35:36.723Z,25.3
2022-07-26T16:38:03.357Z,25.2
2022-07-26T16:40:29.981Z,25.2
2022-07-26T16:42:56.608Z,25.3
2022-07-26T16:45:23.207Z,25.3
2022-07-26T16:47:49.840Z,25.3
2022-07-26T16:50:16.465Z,25.3
2022-07-26T16:52:43.101Z,25.3
2022-07-26T16:55:09.713Z,25.3
2022-07-26T16:57:36.326Z,25.3
2022-07-26T17:00:02.949Z,25.3
2022-07-26T17:02:28.076Z,25.3
2022-07-26T17:04:54.719Z,25.3
2022-07-26T17:07:21.342Z,25.2
2022-07-26T17:09:47.950Z,25.2
2022-07-26T17:12:14.579Z,25.2
2022-07-26T17:14:41.206Z,25.2
2022-07-26T17:17:07.826Z,25.2
2022-07-26T17:19:34.450Z,25.2
2022-07-26T17:22:01.068Z,25.3
2022-07-26T17:24:27.695Z,25.2
2022-07-26T17:26:54.315Z,25.3
2022-07-26T17:29:20.957Z,25.3
2022-07-26T17:31:47.569Z,25.3
2022-07-26T17:34:12.693Z,25.3
2022-07-26T17:36:39.317Z,25.3
2022-07-26T17:39:05.944Z,25.2
2022-07-26T17:41:32.569Z,25.2
2022-07-26T17:43:59.172Z,25.2
2022-07-26T17:46:25.813Z,25.2
2022-07-26T17:48:52.435Z,25.2
2022-07-26T17:51:19.061Z,25.2
2022-07-26T17:53:45.672Z,25.2
2022-07-26T17:56:12.315Z,25.2
2022-07-26T17:58:38.914Z,25.2
2022-07-26T18:01:05.543Z,25.2
2022-07-26T18:03:32.162Z,25.2
2022-07-26T18:05:57.298Z,25.2
2022-07-26T18:08:23.915Z,25.2
2022-07-26T18:10:50.545Z,25.2
2022-07-26T18:13:17.162Z,25.2
2022-07-26T18:15:43.788Z,25.2
2022-07-26T18:18:10.412Z,25.2
2022-07-26T18:20:37.048Z,25.2
2022-07-26T18:23:03.657Z,25.2
2022-07-26T18:25:30.293Z,25.2
2022-07-26T18:30:23.531Z,25.2
2022-07-26T18:32:50.149Z,25.2
2022-07-26T18:35:16.773Z,25.2
2022-07-26T18:37:41.896Z,25.2
2022-07-26T18:40:08.526Z,25.2
2022-07-26T18:45:01.784Z,25.2
2022-07-26T18:47:28.405Z,25.2
2022-07-26T18:49:55.026Z,25.2
2022-07-26T18:54:48.258Z,25.1
2022-07-26T18:57:13.402Z,25.2
2022-07-26T18:59:40.028Z,25.2
2022-07-26T19:02:05.144Z,25.1
2022-07-26T19:04:31.781Z,25.1
2022-07-26T19:06:58.394Z,25.1
2022-07-26T19:09:25.028Z,25.1
2022-07-26T19:11:51.644Z,25.1
2022-07-26T19:14:18.272Z,25.1
2022-07-26T19:16:44.885Z,25.1
2022-07-26T19:19:11.505Z,25.1
2022-07-26T19:24:04.762Z,25.1
2022-07-26T19:28:58.004Z,25.1
2022-07-26T19:31:23.132Z,25.1
2022-07-26T19:38:41.497Z,25.1
2022-07-26T19:43:34.763Z,25.1
2022-07-26T19:46:01.376Z,25.1
2022-07-26T19:50:54.631Z,25.1
2022-07-26T19:53:21.247Z,25.1
2022-07-26T19:58:14.493Z,25.1
2022-07-26T20:00:41.127Z,25.1
2022-07-26T20:03:07.760Z,25.1
2022-07-26T20:05:32.866Z,25.1
2022-07-26T20:07:59.488Z,25.1
2022-07-26T20:12:52.740Z,25.1
2022-07-26T20:15:19.348Z,25.1
2022-07-26T20:17:45.986Z,25.1
2022-07-26T20:20:12.608Z,25.1
2022-07-26T20:22:39.209Z,25.1
2022-07-26T20:27:32.482Z,25.1
2022-07-26T20:29:59.084Z,25.1
2022-07-26T20:32:25.708Z,25.1
2022-07-26T20:34:52.346Z,25.1
2022-07-26T20:37:17.469Z,25.1
2022-07-26T20:42:10.714Z,25.1
2022-07-26T20:44:37.344Z,25
2022-07-26T20:47:03.969Z,25.1
2022-07-26T20:49:30.586Z,25.1
2022-07-26T20:51:57.186Z,25.1
2022-07-26T20:54:23.822Z,25.1
2022-07-26T20:56:50.446Z,25.1
2022-07-26T20:59:17.069Z,25
2022-07-26T21:01:43.694Z,25.1
2022-07-26T21:04:10.324Z,25.1
2022-07-26T21:06:36.943Z,25
2022-07-26T21:09:02.068Z,25
2022-07-26T21:11:28.690Z,25
2022-07-26T21:13:55.313Z,25
2022-07-26T21:16:21.930Z,25
2022-07-26T21:18:47.085Z,25
2022-07-26T21:21:12.190Z,25
2022-07-26T21:23:38.823Z,25
2022-07-26T21:26:05.443Z,25
2022-07-26T21:28:32.057Z,25
2022-07-26T21:30:58.685Z,25
2022-07-26T21:33:25.304Z,25
2022-07-26T21:35:51.932Z,25
2022-07-26T21:38:18.552Z,25
2022-07-26T21:40:45.170Z,25
2022-07-26T21:43:11.783Z,25
2022-07-26T21:45:36.920Z,25
2022-07-26T21:48:02.052Z,25
2022-07-26T21:50:28.671Z,25
2022-07-26T21:52:55.305Z,24.9
2022-07-26T21:55:21.928Z,24.9
2022-07-26T21:57:48.543Z,24.9
2022-07-26T22:00:15.183Z,24.9
2022-07-26T22:02:41.793Z,24.9
2022-07-26T22:05:08.407Z,24.9
2022-07-26T22:07:35.049Z,24.9
2022-07-26T22:10:01.664Z,24.9
2022-07-26T22:12:28.265Z,24.9
2022-07-26T22:14:54.904Z,24.9
2022-07-26T22:17:21.528Z,24.9
2022-07-26T22:19:46.660Z,24.9
2022-07-26T22:22:13.261Z,24.9
2022-07-26T22:24:39.886Z,24.9
2022-07-26T22:27:06.524Z,24.9
2022-07-26T22:29:33.153Z,24.9
2022-07-26T22:31:59.776Z,24.9
2022-07-26T22:34:26.391Z,24.9
2022-07-26T22:36:53.003Z,24.9
2022-07-26T22:39:19.638Z,24.9
2022-07-26T22:41:46.258Z,24.9
2022-07-26T22:44:12.873Z,24.9
2022-07-26T22:46:39.492Z,24.9
2022-07-26T22:49:06.128Z,24.9
2022-07-26T22:51:31.260Z,24.9
2022-07-26T22:53:57.892Z,24.9
2022-07-26T22:56:24.493Z,24.9
2022-07-26T22:58:51.125Z,24.8
2022-07-26T23:01:17.736Z,24.9
2022-07-26T23:03:44.371Z,24.8
2022-07-26T23:06:10.988Z,24.8
2022-07-26T23:08:36.115Z,24.9
2022-07-26T23:11:02.734Z,24.8
2022-07-26T23:13:29.369Z,24.8
2022-07-26T23:15:55.983Z,24.8
2022-07-26T23:18:22.617Z,24.8
2022-07-26T23:20:49.241Z,24.8
2022-07-26T23:23:15.849Z,24.8
2022-07-26T23:25:42.477Z,24.8
2022-07-26T23:28:09.093Z,24.8
2022-07-26T23:30:35.725Z,24.8
2022-07-26T23:33:02.351Z,24.7
2022-07-26T23:35:28.959Z,24.7
2022-07-26T23:37:55.594Z,24.8
2022-07-26T23:40:20.721Z,24.8
2022-07-26T23:42:47.340Z,24.8
2022-07-26T23:45:13.969Z,24.7
2022-07-26T23:47:40.578Z,24.7
2022-07-26T23:50:07.205Z,24.7
2022-07-26T23:52:33.830Z,24.7
2022-07-26T23:55:00.448Z,24.7
2022-07-26T23:57:27.082Z,24.7
2022-07-26T23:59:53.704Z,24.7
